• Join FlightAware (Why Join?)
  • Login
  • US Flag 
03:04PM EST


 

Airport Tracker/Info


-or-


 

Live Flight TrackerFlight Track Log ✈ N423S ✈ 25-Aug-2013 ✈ KFWA - KDAY

Flight Track Log - Related Links

Times and Time Zones

All times are in EDT time to prevent confusion due to time zone crossing. See the N423S flight status page for this flight to view local times or setup timezone preferences in your user account.

Time Position Orientation Groundspeed Altitude Reporting Facility
EDT Latitude Longitude Course Direction KTS MPH feet Rate Location/Type
10:39AM 40.9319 -85.1683 146° Southeast 110 127 2,800  Level Chicago Center
10:40AM 40.9081 -85.1431 141° Southeast 109 125 3,500 660 Climbing Chicago Center
10:41AM 40.8828 -85.1183 144° Southeast 111 128 4,200 660 Climbing Chicago Center
10:42AM 40.8578 -85.0947 144° Southeast 112 129 4,900 360 Climbing Chicago Center
10:43AM 40.7726 -85.0055 146° Southeast  Level Estimated
10:43AM 40.8311 -85.0708 146° Southeast 114 131 5,000  Level Chicago Center
10:44AM 40.7380 -84.9744 146° Southeast  Level FlightAware Approximate
10:44AM 40.7981 -85.0244 133° Southeast 155 178 5,000  Level Chicago Center
10:45AM 40.7617 -84.9886 143° Southeast 157 181 5,000  Level Chicago Center
10:46AM 40.7272 -84.9514 141° Southeast 161 185 5,000  Level Chicago Center
10:47AM 40.6900 -84.9206 148° Southeast 159 183 5,000  Level Chicago Center
10:48AM 40.6542 -84.8853 143° Southeast 160 184 5,000  Level Chicago Center
10:49AM 40.6194 -84.8478 141° Southeast 161 185 5,000  Level Chicago Center
10:50AM 40.5817 -84.8172 148° Southeast 161 185 5,000  Level Chicago Center
10:51AM 40.5361 -84.7803 148° Southeast 160 184 5,000  Level Chicago Center
10:52AM 40.4944 -84.7461 148° Southeast 162 186 5,000  Level Indianapolis Center
10:53AM 40.4581 -84.7119 144° Southeast 162 186 5,000  Level Indianapolis Center
10:54AM 40.4211 -84.6781 145° Southeast 163 188 5,000 -60 Level Indianapolis Center
10:55AM 40.3867 -84.6467 145° Southeast 163 188 4,900 -300 Descending Indianapolis Center
10:56AM 40.3422 -84.6108 148° Southeast 173 199 4,500 -420 Descending Indianapolis Center
10:57AM 40.3156 -84.5839 142° Southeast 176 203 4,200 -420 Descending Indianapolis Center
10:57AM 40.2964 -84.5658 144° Southeast 172 198 4,000 -120 Descending Indianapolis Center
10:58AM 40.2750 -84.5325 130° Southeast 165 190 4,100 60 Climbing Indianapolis Center
10:59AM 40.2453 -84.4939 135° Southeast 157 181 4,100  Level Indianapolis Center
11:00AM 40.2114 -84.4575 141° Southeast 158 182 4,100  Level Indianapolis Center
11:01AM 40.1742 -84.4122 137° Southeast 159 183 4,100 -300 Level Indianapolis Center
11:02AM 40.1383 -84.3728 140° Southeast 171 197 3,500 -600 Descending Indianapolis Center
11:03AM 40.1081 -84.3428 143° Southeast 180 207 3,100 -300 Descending Indianapolis Center
11:04AM 40.0856 -84.3158 137° Southeast 173 199 3,100  Level Indianapolis Center
11:05AM 40.0544 -84.2775 137° Southeast 166 191 3,100 -60 Level Indianapolis Center
11:06AM 40.0086 -84.2289 141° Southeast 139 160 3,000 -180 Descending Indianapolis Center
11:07AM 39.9942 -84.2197 154° Southeast 136 157 2,800 -540 Descending Indianapolis Center
11:08AM 39.9653 -84.2139 171° South 119 137 2,100 -540 Descending Indianapolis Center
11:09AM 39.9333 -84.2136 180° South 111 128 1,700 -420 Descending Indianapolis Center
11:11AM 39.9046 -84.2167 180° South  Level FlightAware Approximate